createdAt,value
2022-12-22T00:05:08.165Z,99659.59
2022-12-22T00:10:28.309Z,99671.75
2022-12-22T00:15:50.042Z,99664.59
2022-12-22T00:21:10.280Z,99648.09
2022-12-22T00:26:30.543Z,99651.72
2022-12-22T00:31:51.042Z,99653.84
2022-12-22T00:37:11.280Z,99651.66
2022-12-22T00:42:31.285Z,99643.69
2022-12-22T00:47:51.798Z,99633.53
2022-12-22T00:53:11.912Z,99627.22
2022-12-22T00:58:35.533Z,99618.00
2022-12-22T01:03:55.683Z,99610.84
2022-12-22T01:09:15.907Z,99606.84
2022-12-22T01:14:36.553Z,99615.00
2022-12-22T01:19:57.142Z,99608.09
2022-12-22T01:25:17.267Z,99600.84
2022-12-22T01:30:37.240Z,99589.00
2022-12-22T01:35:57.365Z,99573.81
2022-12-22T01:41:18.653Z,99566.06
2022-12-22T01:46:54.567Z,99558.44
2022-12-22T01:52:15.090Z,99560.56
2022-12-22T01:57:35.132Z,99563.22
2022-12-22T02:02:56.135Z,99553.94
2022-12-22T02:08:22.706Z,99550.72
2022-12-22T02:13:58.505Z,99538.03
2022-12-22T02:19:41.882Z,99542.50
2022-12-22T02:25:17.449Z,99531.75
2022-12-22T02:30:37.514Z,99521.56
2022-12-22T02:36:08.255Z,99515.84
2022-12-22T02:41:53.703Z,99511.50
2022-12-22T02:47:27.518Z,99513.47
2022-12-22T02:52:50.164Z,99500.03
2022-12-22T02:58:10.785Z,99501.84
2022-12-22T03:03:30.955Z,99493.47
2022-12-22T03:08:51.384Z,99497.38
2022-12-22T03:14:11.261Z,99470.41
2022-12-22T03:19:31.192Z,99446.38
2022-12-22T03:24:51.154Z,99447.94
2022-12-22T03:29:52.765Z,99444.56
2022-12-22T03:34:54.427Z,99424.16
2022-12-22T03:39:56.052Z,99417.16
2022-12-22T03:45:16.408Z,99409.94
2022-12-22T03:50:18.117Z,99411.00
2022-12-22T03:55:19.704Z,99409.19
2022-12-22T04:00:21.749Z,99406.53
2022-12-22T04:05:23.354Z,99411.28
2022-12-22T04:10:43.769Z,99404.59
2022-12-22T04:15:45.412Z,99390.44
2022-12-22T04:20:47.125Z,99392.56
2022-12-22T04:25:48.699Z,99385.88
2022-12-22T04:30:51.092Z,99371.88
2022-12-22T04:35:52.789Z,99376.63
2022-12-22T04:40:54.501Z,99376.31
2022-12-22T04:45:57.187Z,99360.13
2022-12-22T04:50:59.874Z,99355.63
2022-12-22T04:56:07.042Z,99348.66
2022-12-22T05:01:10.835Z,99345.72
2022-12-22T05:06:13.240Z,99336.38
2022-12-22T05:11:14.840Z,99331.03
2022-12-22T05:16:17.475Z,99321.38
2022-12-22T05:21:21.621Z,99318.16
2022-12-22T05:26:23.228Z,99324.19
2022-12-22T05:31:25.830Z,99322.66
2022-12-22T05:36:27.445Z,99306.66
2022-12-22T05:41:29.066Z,99297.31
2022-12-22T05:46:30.723Z,99294.94
2022-12-22T05:51:32.364Z,99278.72
2022-12-22T05:56:34.000Z,99280.09
2022-12-22T06:01:35.679Z,99279.78
2022-12-22T06:06:37.303Z,99270.44
2022-12-22T06:11:38.927Z,99271.66
2022-12-22T06:16:40.662Z,99269.84
2022-12-22T06:21:42.325Z,99272.59
2022-12-22T06:26:43.939Z,99263.78
2022-12-22T06:31:45.753Z,99258.34
2022-12-22T06:36:48.132Z,99260.47
2022-12-22T06:42:08.054Z,99264.63
2022-12-22T06:47:09.659Z,99264.63
2022-12-22T06:52:11.290Z,99276.03
2022-12-22T06:57:13.061Z,99270.66
2022-12-22T07:02:14.805Z,99274.47
2022-12-22T07:07:16.613Z,99260.25
2022-12-22T07:12:18.396Z,99243.69
2022-12-22T07:17:20.183Z,99236.81
2022-12-22T07:22:27.753Z,99240.31
2022-12-22T07:27:31.900Z,99230.25
2022-12-22T07:32:33.537Z,99231.34
2022-12-22T07:37:35.173Z,99219.41
2022-12-22T07:42:45.845Z,99214.88
2022-12-22T07:47:48.465Z,99218.59
2022-12-22T07:52:50.277Z,99215.25
2022-12-22T07:57:52.021Z,99207.88
2022-12-22T08:02:55.349Z,99212.41
2022-12-22T08:07:57.004Z,99210.47
2022-12-22T08:12:58.732Z,99201.19
2022-12-22T08:18:00.385Z,99198.84
2022-12-22T08:23:02.023Z,99182.78
2022-12-22T08:28:03.848Z,99170.00
2022-12-22T08:33:05.439Z,99162.41
2022-12-22T08:38:07.664Z,99153.47
2022-12-22T08:43:10.385Z,99151.88
2022-12-22T08:48:12.033Z,99144.94
2022-12-22T08:53:30.041Z,99139.69
2022-12-22T08:58:35.254Z,99136.03
2022-12-22T09:03:36.866Z,99138.28
2022-12-22T09:08:38.481Z,99126.97
2022-12-22T09:13:40.314Z,99127.00
2022-12-22T09:18:41.912Z,99118.69
2022-12-22T09:23:43.979Z,99111.06
2022-12-22T09:28:50.183Z,99108.19
2022-12-22T09:33:52.927Z,99111.91
2022-12-22T09:38:54.628Z,99110.56
2022-12-22T09:43:56.538Z,99100.25
2022-12-22T09:48:58.822Z,99087.09
2022-12-22T09:54:01.242Z,99086.28
2022-12-22T09:59:12.109Z,99070.63
2022-12-22T10:04:47.667Z,99066.31
2022-12-22T10:09:51.036Z,99057.31
2022-12-22T10:14:54.153Z,99048.31
2022-12-22T10:20:27.588Z,99037.31
2022-12-22T10:31:27.580Z,99016.28
2022-12-22T10:36:31.620Z,99007.13
2022-12-22T10:41:37.311Z,99020.09
2022-12-22T10:46:44.532Z,99021.78
2022-12-22T10:51:49.565Z,99023.44
2022-12-22T10:57:06.410Z,99006.44
2022-12-22T11:02:38.246Z,99010.63
2022-12-22T11:07:42.263Z,98999.94
2022-12-22T11:13:20.284Z,98991.59
2022-12-22T11:18:39.200Z,98986.22
2022-12-22T11:23:56.029Z,98962.84
2022-12-22T11:29:17.110Z,98961.56
2022-12-22T11:34:33.850Z,98954.34
2022-12-22T11:39:44.419Z,98936.63
2022-12-22T11:45:00.584Z,98940.63
2022-12-22T11:50:58.994Z,98926.00
2022-12-22T11:55:37.780Z,98936.97
2022-12-22T12:01:25.606Z,98928.56
2022-12-22T12:06:49.664Z,98929.84
2022-12-22T12:12:00.678Z,98922.53
2022-12-22T12:17:25.139Z,98924.66
2022-12-22T12:22:45.428Z,98924.41
2022-12-22T12:28:13.416Z,98924.56
2022-12-22T12:33:17.143Z,98914.75
2022-12-22T12:39:13.388Z,98916.59
2022-12-22T12:44:05.776Z,98919.03
2022-12-22T12:49:32.141Z,98916.84
2022-12-22T12:54:33.663Z,98915.72
2022-12-22T12:59:41.266Z,98909.00
2022-12-22T13:05:20.429Z,98911.19
2022-12-22T13:10:24.507Z,98901.47
2022-12-22T13:15:33.965Z,98908.34
2022-12-22T13:20:37.154Z,98906.31
2022-12-22T13:25:48.234Z,98909.25
2022-12-22T13:30:53.614Z,98911.75
2022-12-22T13:35:59.280Z,98917.34
2022-12-22T13:41:04.692Z,98917.97
2022-12-22T13:46:09.138Z,98917.00
2022-12-22T13:51:35.656Z,98915.06
2022-12-22T13:56:40.088Z,98900.75
2022-12-22T14:01:52.167Z,98907.13
2022-12-22T14:06:54.835Z,98916.81
2022-12-22T14:11:57.217Z,98911.38
2022-12-22T14:17:00.447Z,98914.38
2022-12-22T14:22:09.093Z,98930.53
2022-12-22T14:27:53.109Z,98926.09
2022-12-22T14:32:56.304Z,98924.91
2022-12-22T14:38:06.986Z,98933.66
2022-12-22T14:43:17.875Z,98935.31
2022-12-22T14:48:26.078Z,98937.34
2022-12-22T14:53:38.017Z,98945.09
2022-12-22T14:58:44.007Z,98957.09
2022-12-22T15:04:19.397Z,98957.09
2022-12-22T15:09:39.739Z,98975.59
2022-12-22T15:14:42.717Z,98984.19
2022-12-22T15:19:44.368Z,98989.09
2022-12-22T15:24:47.061Z,99012.56
2022-12-22T15:29:48.716Z,99011.09
2022-12-22T15:34:50.367Z,99016.56
2022-12-22T15:39:52.032Z,99045.53
2022-12-22T15:44:53.740Z,99061.31
2022-12-22T15:49:55.368Z,99069.44
2022-12-22T15:54:57.336Z,99081.59
2022-12-22T15:59:58.968Z,99091.38
2022-12-22T16:05:00.643Z,99109.75
2022-12-22T16:10:02.961Z,99116.53
2022-12-22T16:15:05.231Z,99117.91
2022-12-22T16:20:07.402Z,99123.50
2022-12-22T16:25:15.155Z,99127.44
2022-12-22T16:30:22.234Z,99141.69
2022-12-22T16:35:26.471Z,99156.09
2022-12-22T16:40:28.378Z,99165.69
2022-12-22T16:45:32.414Z,99189.75
2022-12-22T16:50:34.120Z,99195.69
2022-12-22T16:55:36.022Z,99203.06
2022-12-22T17:00:38.259Z,99212.25
2022-12-22T17:05:44.717Z,99230.50
2022-12-22T17:10:46.805Z,99231.06
2022-12-22T17:15:48.475Z,99244.72
2022-12-22T17:20:55.855Z,99254.97
2022-12-22T17:25:59.226Z,99260.66
2022-12-22T17:31:01.215Z,99265.31
2022-12-22T17:36:02.976Z,99265.34
2022-12-22T17:41:04.765Z,99261.00
2022-12-22T17:46:13.975Z,99267.34
2022-12-22T17:51:18.508Z,99281.88
2022-12-22T17:56:22.356Z,99285.38
2022-12-22T18:01:30.107Z,99286.41
2022-12-22T18:06:34.566Z,99298.13
2022-12-22T18:11:40.577Z,99308.16
2022-12-22T18:16:45.538Z,99311.47
2022-12-22T18:21:47.353Z,99318.19
2022-12-22T18:26:49.090Z,99322.19
2022-12-22T18:31:50.891Z,99336.75
2022-12-22T18:36:52.826Z,99331.88
2022-12-22T18:41:54.589Z,99326.03
2022-12-22T18:46:56.337Z,99327.56
2022-12-22T18:51:58.047Z,99322.53
2022-12-22T18:56:59.721Z,99316.03
2022-12-22T19:02:15.554Z,99321.88
2022-12-22T19:07:19.851Z,99312.38
2022-12-22T19:12:23.090Z,99314.53
2022-12-22T19:17:28.623Z,99318.88
2022-12-22T19:22:30.348Z,99321.22
2022-12-22T19:27:33.039Z,99317.53
2022-12-22T19:32:41.214Z,99329.22
2022-12-22T19:37:42.944Z,99328.72
2022-12-22T19:42:47.202Z,99325.56
2022-12-22T19:47:49.288Z,99317.38
2022-12-22T19:52:51.999Z,99320.88
2022-12-22T19:57:53.970Z,99324.53
2022-12-22T20:02:56.623Z,99333.72
2022-12-22T20:08:00.261Z,99325.03
2022-12-22T20:13:07.196Z,99326.72
2022-12-22T20:18:23.263Z,99323.19
2022-12-22T20:23:25.243Z,99321.19
2022-12-22T20:28:29.407Z,99323.19
2022-12-22T20:33:31.816Z,99317.53
2022-12-22T20:38:36.886Z,99313.84
2022-12-22T20:43:38.926Z,99320.84
2022-12-22T20:48:46.276Z,99317.19
2022-12-22T20:53:48.820Z,99321.19
2022-12-22T20:58:51.071Z,99326.03
2022-12-22T21:03:52.791Z,99327.53
2022-12-22T21:08:55.995Z,99321.84
2022-12-22T21:13:58.632Z,99313.34
2022-12-22T21:19:00.646Z,99310.16
2022-12-22T21:24:03.666Z,99318.19
2022-12-22T21:29:08.163Z,99305.63
2022-12-22T21:34:12.901Z,99314.78
2022-12-22T21:39:39.439Z,99301.59
2022-12-22T21:44:41.160Z,99286.75
2022-12-22T21:49:42.824Z,99286.59
2022-12-22T21:54:44.464Z,99287.09
2022-12-22T21:59:46.520Z,99276.91
2022-12-22T22:04:54.172Z,99287.59
2022-12-22T22:09:56.765Z,99279.94
2022-12-22T22:14:58.554Z,99270.94
2022-12-22T22:20:00.201Z,99266.25
2022-12-22T22:25:02.124Z,99261.75
2022-12-22T22:30:05.155Z,99263.09
2022-12-22T22:35:06.978Z,99246.03
2022-12-22T22:40:10.693Z,99236.16
2022-12-22T22:45:15.555Z,99227.03
2022-12-22T22:50:18.929Z,99220.34
2022-12-22T22:55:20.541Z,99206.19
2022-12-22T23:00:22.783Z,99207.16
2022-12-22T23:05:24.546Z,99201.69
2022-12-22T23:10:26.132Z,99198.69
2022-12-22T23:15:27.761Z,99197.19
2022-12-22T23:20:29.473Z,99192.34
2022-12-22T23:25:31.119Z,99190.69
2022-12-22T23:30:32.727Z,99183.00
2022-12-22T23:35:41.452Z,99179.00
2022-12-22T23:40:58.533Z,99177.34
2022-12-22T23:46:00.358Z,99161.63
2022-12-22T23:51:02.307Z,99159.66
2022-12-22T23:56:04.188Z,99155.31
